sensor_id;sensor_type;location;lat;lon;timestamp;P1;durP1;ratioP1;P2;durP2;ratioP2
1344;SDS011;15375;48.540;9.268;2022-07-17T00:01:49;3.73;;;3.43;;
1344;SDS011;15375;48.540;9.268;2022-07-17T00:04:14;4.43;;;4.00;;
1344;SDS011;15375;48.540;9.268;2022-07-17T00:06:39;5.70;;;4.70;;
1344;SDS011;15375;48.540;9.268;2022-07-17T00:09:05;4.40;;;3.63;;
1344;SDS011;15375;48.540;9.268;2022-07-17T00:11:31;4.80;;;4.40;;
1344;SDS011;15375;48.540;9.268;2022-07-17T00:13:56;4.77;;;4.33;;
1344;SDS011;15375;48.540;9.268;2022-07-17T00:16:22;7.07;;;5.53;;
1344;SDS011;15375;48.540;9.268;2022-07-17T00:18:47;4.50;;;4.10;;
1344;SDS011;15375;48.540;9.268;2022-07-17T00:21:13;5.07;;;4.57;;
1344;SDS011;15375;48.540;9.268;2022-07-17T00:23:38;4.97;;;4.47;;
1344;SDS011;15375;48.540;9.268;2022-07-17T00:26:04;8.90;;;5.10;;
1344;SDS011;15375;48.540;9.268;2022-07-17T00:28:29;5.37;;;4.90;;
1344;SDS011;15375;48.540;9.268;2022-07-17T00:30:55;5.33;;;4.27;;
1344;SDS011;15375;48.540;9.268;2022-07-17T00:33:21;4.03;;;3.60;;
1344;SDS011;15375;48.540;9.268;2022-07-17T00:35:46;5.23;;;4.80;;
1344;SDS011;15375;48.540;9.268;2022-07-17T00:38:11;6.60;;;4.77;;
1344;SDS011;15375;48.540;9.268;2022-07-17T00:40:38;4.77;;;4.27;;
1344;SDS011;15375;48.540;9.268;2022-07-17T00:43:04;4.63;;;4.17;;
1344;SDS011;15375;48.540;9.268;2022-07-17T00:45:29;4.60;;;3.90;;
1344;SDS011;15375;48.540;9.268;2022-07-17T00:47:56;5.03;;;4.63;;
1344;SDS011;15375;48.540;9.268;2022-07-17T00:50:30;6.47;;;4.20;;
1344;SDS011;15375;48.540;9.268;2022-07-17T00:52:57;5.33;;;4.37;;
1344;SDS011;15375;48.540;9.268;2022-07-17T00:55:23;5.90;;;4.20;;
1344;SDS011;15375;48.540;9.268;2022-07-17T00:57:50;7.40;;;4.50;;
1344;SDS011;15375;48.540;9.268;2022-07-17T01:00:17;4.57;;;4.17;;
1344;SDS011;15375;48.540;9.268;2022-07-17T01:02:47;5.10;;;4.60;;
1344;SDS011;15375;48.540;9.268;2022-07-17T01:05:14;4.03;;;3.73;;
1344;SDS011;15375;48.540;9.268;2022-07-17T01:07:40;4.40;;;4.00;;
1344;SDS011;15375;48.540;9.268;2022-07-17T01:10:06;5.50;;;5.00;;
1344;SDS011;15375;48.540;9.268;2022-07-17T01:12:32;10.20;;;4.30;;
1344;SDS011;15375;48.540;9.268;2022-07-17T01:14:58;4.27;;;3.80;;
1344;SDS011;15375;48.540;9.268;2022-07-17T01:17:24;4.90;;;4.47;;
1344;SDS011;15375;48.540;9.268;2022-07-17T01:19:50;5.10;;;4.60;;
1344;SDS011;15375;48.540;9.268;2022-07-17T01:22:16;4.37;;;3.97;;
1344;SDS011;15375;48.540;9.268;2022-07-17T01:24:41;4.60;;;4.17;;
1344;SDS011;15375;48.540;9.268;2022-07-17T01:27:07;4.33;;;3.97;;
1344;SDS011;15375;48.540;9.268;2022-07-17T01:29:35;5.00;;;4.30;;
1344;SDS011;15375;48.540;9.268;2022-07-17T01:32:01;5.47;;;3.90;;
1344;SDS011;15375;48.540;9.268;2022-07-17T01:34:27;4.20;;;3.80;;
1344;SDS011;15375;48.540;9.268;2022-07-17T01:36:52;5.07;;;4.60;;
1344;SDS011;15375;48.540;9.268;2022-07-17T01:39:18;4.63;;;4.17;;
1344;SDS011;15375;48.540;9.268;2022-07-17T01:42:03;6.37;;;3.43;;
1344;SDS011;15375;48.540;9.268;2022-07-17T01:44:28;4.27;;;3.77;;
1344;SDS011;15375;48.540;9.268;2022-07-17T01:46:54;4.57;;;4.00;;
1344;SDS011;15375;48.540;9.268;2022-07-17T01:49:19;5.60;;;4.80;;
1344;SDS011;15375;48.540;9.268;2022-07-17T01:51:44;4.50;;;4.20;;
1344;SDS011;15375;48.540;9.268;2022-07-17T01:54:10;4.63;;;4.17;;
1344;SDS011;15375;48.540;9.268;2022-07-17T01:56:35;4.53;;;4.13;;
1344;SDS011;15375;48.540;9.268;2022-07-17T01:59:00;6.27;;;4.23;;
1344;SDS011;15375;48.540;9.268;2022-07-17T02:01:26;4.80;;;4.27;;
1344;SDS011;15375;48.540;9.268;2022-07-17T02:03:51;4.30;;;3.90;;
1344;SDS011;15375;48.540;9.268;2022-07-17T02:06:16;5.33;;;4.87;;
1344;SDS011;15375;48.540;9.268;2022-07-17T02:08:42;5.90;;;4.27;;
1344;SDS011;15375;48.540;9.268;2022-07-17T02:11:07;7.63;;;5.03;;
1344;SDS011;15375;48.540;9.268;2022-07-17T02:13:33;6.20;;;4.17;;
1344;SDS011;15375;48.540;9.268;2022-07-17T02:15:58;4.87;;;4.37;;
1344;SDS011;15375;48.540;9.268;2022-07-17T02:18:23;5.13;;;4.60;;
1344;SDS011;15375;48.540;9.268;2022-07-17T02:20:49;5.30;;;4.80;;
1344;SDS011;15375;48.540;9.268;2022-07-17T02:23:14;4.40;;;4.00;;
1344;SDS011;15375;48.540;9.268;2022-07-17T02:25:40;7.63;;;5.13;;
1344;SDS011;15375;48.540;9.268;2022-07-17T02:28:05;4.60;;;4.20;;
1344;SDS011;15375;48.540;9.268;2022-07-17T02:30:31;7.43;;;4.93;;
1344;SDS011;15375;48.540;9.268;2022-07-17T02:32:56;5.40;;;4.47;;
1344;SDS011;15375;48.540;9.268;2022-07-17T02:35:21;5.50;;;5.00;;
1344;SDS011;15375;48.540;9.268;2022-07-17T02:37:47;5.10;;;4.60;;
1344;SDS011;15375;48.540;9.268;2022-07-17T02:40:12;4.83;;;4.30;;
1344;SDS011;15375;48.540;9.268;2022-07-17T02:42:38;5.13;;;4.73;;
1344;SDS011;15375;48.540;9.268;2022-07-17T02:45:04;4.27;;;3.87;;
1344;SDS011;15375;48.540;9.268;2022-07-17T02:47:32;4.87;;;4.47;;
1344;SDS011;15375;48.540;9.268;2022-07-17T02:49:58;4.70;;;4.30;;
1344;SDS011;15375;48.540;9.268;2022-07-17T02:52:26;5.77;;;4.67;;
1344;SDS011;15375;48.540;9.268;2022-07-17T02:54:52;6.13;;;5.23;;
1344;SDS011;15375;48.540;9.268;2022-07-17T02:57:17;4.87;;;4.47;;
1344;SDS011;15375;48.540;9.268;2022-07-17T02:59:43;6.43;;;5.27;;
1344;SDS011;15375;48.540;9.268;2022-07-17T03:02:09;5.50;;;5.00;;
1344;SDS011;15375;48.540;9.268;2022-07-17T03:04:35;6.57;;;5.20;;
1344;SDS011;15375;48.540;9.268;2022-07-17T03:07:03;5.03;;;4.63;;
1344;SDS011;15375;48.540;9.268;2022-07-17T03:09:28;5.83;;;4.70;;
1344;SDS011;15375;48.540;9.268;2022-07-17T03:11:54;6.80;;;4.70;;
1344;SDS011;15375;48.540;9.268;2022-07-17T03:14:19;5.90;;;4.40;;
1344;SDS011;15375;48.540;9.268;2022-07-17T03:16:45;5.23;;;4.60;;
1344;SDS011;15375;48.540;9.268;2022-07-17T03:19:10;5.30;;;4.53;;
1344;SDS011;15375;48.540;9.268;2022-07-17T03:21:35;4.50;;;4.20;;
1344;SDS011;15375;48.540;9.268;2022-07-17T03:24:01;4.50;;;4.10;;
1344;SDS011;15375;48.540;9.268;2022-07-17T03:26:26;4.90;;;4.50;;
1344;SDS011;15375;48.540;9.268;2022-07-17T03:28:52;5.80;;;5.20;;
1344;SDS011;15375;48.540;9.268;2022-07-17T03:31:17;5.10;;;4.60;;
1344;SDS011;15375;48.540;9.268;2022-07-17T03:33:42;7.63;;;4.60;;
1344;SDS011;15375;48.540;9.268;2022-07-17T03:36:08;6.43;;;5.00;;
1344;SDS011;15375;48.540;9.268;2022-07-17T03:38:33;4.97;;;4.50;;
1344;SDS011;15375;48.540;9.268;2022-07-17T03:40:59;5.33;;;4.93;;
1344;SDS011;15375;48.540;9.268;2022-07-17T03:43:24;9.73;;;4.60;;
1344;SDS011;15375;48.540;9.268;2022-07-17T03:45:50;4.73;;;4.33;;
1344;SDS011;15375;48.540;9.268;2022-07-17T03:48:15;5.40;;;5.00;;
1344;SDS011;15375;48.540;9.268;2022-07-17T03:50:41;5.43;;;4.60;;
1344;SDS011;15375;48.540;9.268;2022-07-17T03:53:06;5.97;;;4.80;;
1344;SDS011;15375;48.540;9.268;2022-07-17T03:55:32;5.50;;;5.00;;
1344;SDS011;15375;48.540;9.268;2022-07-17T03:57:57;5.10;;;4.67;;
1344;SDS011;15375;48.540;9.268;2022-07-17T04:00:23;7.83;;;5.20;;
1344;SDS011;15375;48.540;9.268;2022-07-17T04:02:48;6.50;;;4.60;;
1344;SDS011;15375;48.540;9.268;2022-07-17T04:05:14;7.03;;;4.77;;
1344;SDS011;15375;48.540;9.268;2022-07-17T04:07:40;4.87;;;4.43;;
1344;SDS011;15375;48.540;9.268;2022-07-17T04:10:06;4.63;;;4.00;;
1344;SDS011;15375;48.540;9.268;2022-07-17T04:12:33;5.13;;;4.63;;
1344;SDS011;15375;48.540;9.268;2022-07-17T04:14:59;4.40;;;4.00;;
1344;SDS011;15375;48.540;9.268;2022-07-17T04:17:24;4.23;;;3.83;;
1344;SDS011;15375;48.540;9.268;2022-07-17T04:19:53;5.03;;;4.37;;
1344;SDS011;15375;48.540;9.268;2022-07-17T04:22:18;5.17;;;4.67;;
1344;SDS011;15375;48.540;9.268;2022-07-17T04:24:44;5.03;;;4.13;;
1344;SDS011;15375;48.540;9.268;2022-07-17T04:27:10;4.57;;;4.27;;
1344;SDS011;15375;48.540;9.268;2022-07-17T04:29:36;4.83;;;4.20;;
1344;SDS011;15375;48.540;9.268;2022-07-17T04:32:02;4.40;;;4.03;;
1344;SDS011;15375;48.540;9.268;2022-07-17T04:34:29;4.70;;;4.13;;
1344;SDS011;15375;48.540;9.268;2022-07-17T04:36:54;5.00;;;4.53;;
1344;SDS011;15375;48.540;9.268;2022-07-17T04:39:20;4.90;;;4.00;;
1344;SDS011;15375;48.540;9.268;2022-07-17T04:41:46;4.97;;;4.30;;
1344;SDS011;15375;48.540;9.268;2022-07-17T04:44:12;8.13;;;4.83;;
1344;SDS011;15375;48.540;9.268;2022-07-17T04:46:37;4.13;;;3.83;;
1344;SDS011;15375;48.540;9.268;2022-07-17T04:49:02;5.30;;;3.53;;
1344;SDS011;15375;48.540;9.268;2022-07-17T04:51:28;4.87;;;4.40;;
1344;SDS011;15375;48.540;9.268;2022-07-17T04:53:53;5.50;;;5.00;;
1344;SDS011;15375;48.540;9.268;2022-07-17T04:56:19;5.20;;;4.80;;
1344;SDS011;15375;48.540;9.268;2022-07-17T04:58:44;6.63;;;4.27;;
1344;SDS011;15375;48.540;9.268;2022-07-17T05:01:09;4.33;;;4.03;;
1344;SDS011;15375;48.540;9.268;2022-07-17T05:03:35;5.53;;;4.77;;
1344;SDS011;15375;48.540;9.268;2022-07-17T05:06:02;4.97;;;4.43;;
1344;SDS011;15375;48.540;9.268;2022-07-17T05:08:28;5.63;;;5.13;;
1344;SDS011;15375;48.540;9.268;2022-07-17T05:10:53;5.90;;;4.33;;
1344;SDS011;15375;48.540;9.268;2022-07-17T05:13:19;5.10;;;4.60;;
1344;SDS011;15375;48.540;9.268;2022-07-17T05:15:44;4.23;;;3.93;;
1344;SDS011;15375;48.540;9.268;2022-07-17T05:18:09;5.60;;;5.10;;
1344;SDS011;15375;48.540;9.268;2022-07-17T05:20:35;4.87;;;4.47;;
1344;SDS011;15375;48.540;9.268;2022-07-17T05:23:00;4.10;;;3.80;;
1344;SDS011;15375;48.540;9.268;2022-07-17T05:25:26;5.97;;;4.10;;
1344;SDS011;15375;48.540;9.268;2022-07-17T05:27:51;5.07;;;4.67;;
1344;SDS011;15375;48.540;9.268;2022-07-17T05:30:16;5.17;;;4.67;;
1344;SDS011;15375;48.540;9.268;2022-07-17T05:32:42;4.33;;;3.90;;
1344;SDS011;15375;48.540;9.268;2022-07-17T05:35:07;4.60;;;4.20;;
1344;SDS011;15375;48.540;9.268;2022-07-17T05:37:33;5.13;;;4.63;;
1344;SDS011;15375;48.540;9.268;2022-07-17T05:39:58;6.73;;;4.43;;
1344;SDS011;15375;48.540;9.268;2022-07-17T05:42:24;7.40;;;4.00;;
1344;SDS011;15375;48.540;9.268;2022-07-17T05:44:49;3.80;;;3.60;;
1344;SDS011;15375;48.540;9.268;2022-07-17T05:47:14;4.53;;;4.20;;
1344;SDS011;15375;48.540;9.268;2022-07-17T05:49:40;4.73;;;4.33;;
1344;SDS011;15375;48.540;9.268;2022-07-17T05:52:05;6.43;;;3.67;;
1344;SDS011;15375;48.540;9.268;2022-07-17T05:54:31;4.07;;;3.77;;
1344;SDS011;15375;48.540;9.268;2022-07-17T05:56:58;5.87;;;4.63;;
1344;SDS011;15375;48.540;9.268;2022-07-17T05:59:23;4.53;;;4.13;;
1344;SDS011;15375;48.540;9.268;2022-07-17T06:01:49;4.80;;;4.40;;
1344;SDS011;15375;48.540;9.268;2022-07-17T06:04:14;5.37;;;4.90;;
1344;SDS011;15375;48.540;9.268;2022-07-17T06:06:40;4.90;;;4.50;;
1344;SDS011;15375;48.540;9.268;2022-07-17T06:09:05;4.70;;;4.30;;
1344;SDS011;15375;48.540;9.268;2022-07-17T06:11:30;5.50;;;4.20;;
1344;SDS011;15375;48.540;9.268;2022-07-17T06:13:56;4.90;;;4.40;;
1344;SDS011;15375;48.540;9.268;2022-07-17T06:16:21;8.40;;;4.53;;
1344;SDS011;15375;48.540;9.268;2022-07-17T06:18:47;4.33;;;4.03;;
1344;SDS011;15375;48.540;9.268;2022-07-17T06:21:12;5.20;;;4.70;;
1344;SDS011;15375;48.540;9.268;2022-07-17T06:23:37;5.20;;;4.70;;
1344;SDS011;15375;48.540;9.268;2022-07-17T06:26:03;6.50;;;4.73;;
1344;SDS011;15375;48.540;9.268;2022-07-17T06:28:28;4.63;;;4.30;;
1344;SDS011;15375;48.540;9.268;2022-07-17T06:30:53;5.60;;;5.20;;
1344;SDS011;15375;48.540;9.268;2022-07-17T06:33:19;5.30;;;4.90;;
1344;SDS011;15375;48.540;9.268;2022-07-17T06:35:44;5.17;;;4.77;;
1344;SDS011;15375;48.540;9.268;2022-07-17T06:38:09;4.93;;;4.63;;
1344;SDS011;15375;48.540;9.268;2022-07-17T06:40:36;5.00;;;4.70;;
1344;SDS011;15375;48.540;9.268;2022-07-17T06:43:01;5.23;;;4.83;;
1344;SDS011;15375;48.540;9.268;2022-07-17T06:45:28;6.17;;;5.40;;
1344;SDS011;15375;48.540;9.268;2022-07-17T06:47:54;4.90;;;4.60;;
1344;SDS011;15375;48.540;9.268;2022-07-17T06:50:19;5.57;;;5.17;;
1344;SDS011;15375;48.540;9.268;2022-07-17T06:52:45;4.93;;;4.43;;
1344;SDS011;15375;48.540;9.268;2022-07-17T06:55:10;5.43;;;4.73;;
1344;SDS011;15375;48.540;9.268;2022-07-17T06:57:35;5.60;;;5.20;;
1344;SDS011;15375;48.540;9.268;2022-07-17T07:00:01;5.60;;;4.97;;
1344;SDS011;15375;48.540;9.268;2022-07-17T07:02:27;5.63;;;5.23;;
1344;SDS011;15375;48.540;9.268;2022-07-17T07:04:52;5.60;;;5.20;;
1344;SDS011;15375;48.540;9.268;2022-07-17T07:07:18;7.17;;;5.87;;
1344;SDS011;15375;48.540;9.268;2022-07-17T07:09:43;5.87;;;5.47;;
1344;SDS011;15375;48.540;9.268;2022-07-17T07:12:08;5.03;;;4.63;;
1344;SDS011;15375;48.540;9.268;2022-07-17T07:14:34;6.90;;;6.20;;
1344;SDS011;15375;48.540;9.268;2022-07-17T07:16:59;6.10;;;5.60;;
1344;SDS011;15375;48.540;9.268;2022-07-17T07:19:24;5.93;;;5.43;;
1344;SDS011;15375;48.540;9.268;2022-07-17T07:21:50;6.27;;;5.47;;
1344;SDS011;15375;48.540;9.268;2022-07-17T07:24:15;5.73;;;5.23;;
1344;SDS011;15375;48.540;9.268;2022-07-17T07:26:41;8.80;;;5.30;;
1344;SDS011;15375;48.540;9.268;2022-07-17T07:29:06;6.03;;;5.60;;
1344;SDS011;15375;48.540;9.268;2022-07-17T07:31:31;6.70;;;6.10;;
1344;SDS011;15375;48.540;9.268;2022-07-17T07:33:57;5.43;;;4.90;;
1344;SDS011;15375;48.540;9.268;2022-07-17T07:36:23;5.17;;;4.77;;
1344;SDS011;15375;48.540;9.268;2022-07-17T07:38:48;5.83;;;5.07;;
1344;SDS011;15375;48.540;9.268;2022-07-17T07:41:14;7.10;;;6.40;;
1344;SDS011;15375;48.540;9.268;2022-07-17T07:43:39;5.33;;;4.93;;
1344;SDS011;15375;48.540;9.268;2022-07-17T07:46:04;7.37;;;5.40;;
1344;SDS011;15375;48.540;9.268;2022-07-17T07:48:30;6.80;;;6.30;;
1344;SDS011;15375;48.540;9.268;2022-07-17T07:50:55;7.93;;;5.00;;
1344;SDS011;15375;48.540;9.268;2022-07-17T07:53:21;5.67;;;5.20;;
1344;SDS011;15375;48.540;9.268;2022-07-17T07:55:46;9.03;;;5.00;;
1344;SDS011;15375;48.540;9.268;2022-07-17T07:58:12;4.80;;;4.50;;
1344;SDS011;15375;48.540;9.268;2022-07-17T08:00:39;5.13;;;4.67;;
1344;SDS011;15375;48.540;9.268;2022-07-17T08:03:07;3.70;;;3.40;;
1344;SDS011;15375;48.540;9.268;2022-07-17T08:05:33;3.40;;;3.10;;
1344;SDS011;15375;48.540;9.268;2022-07-17T08:07:59;4.07;;;3.70;;
1344;SDS011;15375;48.540;9.268;2022-07-17T08:10:24;4.10;;;3.73;;
1344;SDS011;15375;48.540;9.268;2022-07-17T08:12:50;4.70;;;4.07;;
1344;SDS011;15375;48.540;9.268;2022-07-17T08:15:16;4.03;;;3.77;;
1344;SDS011;15375;48.540;9.268;2022-07-17T08:17:43;5.13;;;3.80;;
1344;SDS011;15375;48.540;9.268;2022-07-17T08:20:09;4.93;;;3.80;;
1344;SDS011;15375;48.540;9.268;2022-07-17T08:22:35;4.00;;;3.70;;
1344;SDS011;15375;48.540;9.268;2022-07-17T08:25:00;4.50;;;3.97;;
1344;SDS011;15375;48.540;9.268;2022-07-17T08:27:25;3.80;;;3.50;;
1344;SDS011;15375;48.540;9.268;2022-07-17T08:29:51;4.47;;;3.40;;
1344;SDS011;15375;48.540;9.268;2022-07-17T08:32:16;3.40;;;3.20;;
1344;SDS011;15375;48.540;9.268;2022-07-17T08:34:42;4.40;;;4.00;;
1344;SDS011;15375;48.540;9.268;2022-07-17T08:37:07;4.17;;;3.90;;
1344;SDS011;15375;48.540;9.268;2022-07-17T08:39:32;4.40;;;4.00;;
1344;SDS011;15375;48.540;9.268;2022-07-17T08:41:58;4.30;;;3.90;;
1344;SDS011;15375;48.540;9.268;2022-07-17T08:44:23;4.03;;;3.70;;
1344;SDS011;15375;48.540;9.268;2022-07-17T08:46:49;4.63;;;4.23;;
1344;SDS011;15375;48.540;9.268;2022-07-17T08:49:15;3.90;;;3.60;;
1344;SDS011;15375;48.540;9.268;2022-07-17T08:51:46;3.77;;;3.50;;
1344;SDS011;15375;48.540;9.268;2022-07-17T08:54:12;4.70;;;4.37;;
1344;SDS011;15375;48.540;9.268;2022-07-17T08:56:38;4.00;;;3.67;;
1344;SDS011;15375;48.540;9.268;2022-07-17T08:59:04;3.67;;;3.47;;
1344;SDS011;15375;48.540;9.268;2022-07-17T09:01:29;3.47;;;3.27;;
1344;SDS011;15375;48.540;9.268;2022-07-17T09:03:55;4.13;;;3.83;;
1344;SDS011;15375;48.540;9.268;2022-07-17T09:06:32;3.50;;;3.30;;
1344;SDS011;15375;48.540;9.268;2022-07-17T09:11:40;3.63;;;3.20;;
1344;SDS011;15375;48.540;9.268;2022-07-17T09:14:17;3.83;;;3.53;;
1344;SDS011;15375;48.540;9.268;2022-07-17T09:16:54;3.67;;;3.30;;
1344;SDS011;15375;48.540;9.268;2022-07-17T09:19:25;3.47;;;3.17;;
1344;SDS011;15375;48.540;9.268;2022-07-17T09:22:11;4.03;;;3.73;;
1344;SDS011;15375;48.540;9.268;2022-07-17T09:29:50;3.60;;;3.30;;
1344;SDS011;15375;48.540;9.268;2022-07-17T09:32:17;4.60;;;4.20;;
1344;SDS011;15375;48.540;9.268;2022-07-17T09:34:44;3.93;;;3.43;;
1344;SDS011;15375;48.540;9.268;2022-07-17T09:37:11;3.00;;;2.80;;
1344;SDS011;15375;48.540;9.268;2022-07-17T09:39:37;3.43;;;3.13;;
1344;SDS011;15375;48.540;9.268;2022-07-17T09:42:03;4.00;;;3.70;;
1344;SDS011;15375;48.540;9.268;2022-07-17T09:44:29;2.97;;;2.80;;
1344;SDS011;15375;48.540;9.268;2022-07-17T09:46:54;3.40;;;3.10;;
1344;SDS011;15375;48.540;9.268;2022-07-17T09:49:20;3.93;;;3.53;;
1344;SDS011;15375;48.540;9.268;2022-07-17T09:51:50;5.30;;;3.50;;
1344;SDS011;15375;48.540;9.268;2022-07-17T09:54:16;4.43;;;4.03;;
1344;SDS011;15375;48.540;9.268;2022-07-17T09:56:46;4.40;;;4.00;;
1344;SDS011;15375;48.540;9.268;2022-07-17T09:59:15;3.77;;;3.47;;
1344;SDS011;15375;48.540;9.268;2022-07-17T10:01:42;4.50;;;4.20;;
1344;SDS011;15375;48.540;9.268;2022-07-17T10:04:09;4.53;;;4.00;;
1344;SDS011;15375;48.540;9.268;2022-07-17T10:06:35;3.40;;;3.03;;
1344;SDS011;15375;48.540;9.268;2022-07-17T10:09:01;2.80;;;2.60;;
1344;SDS011;15375;48.540;9.268;2022-07-17T10:11:29;4.33;;;3.60;;
1344;SDS011;15375;48.540;9.268;2022-07-17T10:13:57;5.60;;;4.03;;
1344;SDS011;15375;48.540;9.268;2022-07-17T10:16:36;5.27;;;3.53;;
1344;SDS011;15375;48.540;9.268;2022-07-17T10:19:13;3.73;;;3.37;;
1344;SDS011;15375;48.540;9.268;2022-07-17T10:21:57;3.90;;;3.60;;
1344;SDS011;15375;48.540;9.268;2022-07-17T10:24:25;3.83;;;3.63;;
1344;SDS011;15375;48.540;9.268;2022-07-17T10:26:51;3.60;;;3.33;;
1344;SDS011;15375;48.540;9.268;2022-07-17T10:29:27;3.50;;;3.20;;
1344;SDS011;15375;48.540;9.268;2022-07-17T10:31:58;4.27;;;3.90;;
1344;SDS011;15375;48.540;9.268;2022-07-17T10:34:38;3.90;;;3.60;;
1344;SDS011;15375;48.540;9.268;2022-07-17T10:39:56;3.40;;;3.10;;
1344;SDS011;15375;48.540;9.268;2022-07-17T10:45:19;2.90;;;2.70;;
1344;SDS011;15375;48.540;9.268;2022-07-17T10:47:50;3.30;;;3.10;;
1344;SDS011;15375;48.540;9.268;2022-07-17T10:50:22;3.47;;;3.27;;
1344;SDS011;15375;48.540;9.268;2022-07-17T10:53:06;3.20;;;3.00;;
1344;SDS011;15375;48.540;9.268;2022-07-17T10:55:33;3.70;;;3.40;;
1344;SDS011;15375;48.540;9.268;2022-07-17T10:58:00;3.87;;;3.00;;
1344;SDS011;15375;48.540;9.268;2022-07-17T11:00:25;2.93;;;2.73;;
1344;SDS011;15375;48.540;9.268;2022-07-17T11:02:51;3.60;;;3.30;;
1344;SDS011;15375;48.540;9.268;2022-07-17T11:05:17;3.83;;;2.80;;
1344;SDS011;15375;48.540;9.268;2022-07-17T11:10:22;4.23;;;2.97;;
1344;SDS011;15375;48.540;9.268;2022-07-17T11:12:50;2.93;;;2.73;;
1344;SDS011;15375;48.540;9.268;2022-07-17T11:15:16;3.50;;;3.20;;
1344;SDS011;15375;48.540;9.268;2022-07-17T11:17:45;4.73;;;3.00;;
1344;SDS011;15375;48.540;9.268;2022-07-17T11:20:12;2.70;;;2.50;;
1344;SDS011;15375;48.540;9.268;2022-07-17T11:22:38;3.27;;;2.83;;
1344;SDS011;15375;48.540;9.268;2022-07-17T11:25:04;4.93;;;2.33;;
1344;SDS011;15375;48.540;9.268;2022-07-17T11:27:31;2.70;;;2.50;;
1344;SDS011;15375;48.540;9.268;2022-07-17T11:29:59;3.10;;;2.90;;
1344;SDS011;15375;48.540;9.268;2022-07-17T11:32:36;3.17;;;2.87;;
1344;SDS011;15375;48.540;9.268;2022-07-17T11:35:13;4.27;;;2.70;;
1344;SDS011;15375;48.540;9.268;2022-07-17T11:37:42;2.70;;;2.50;;
1344;SDS011;15375;48.540;9.268;2022-07-17T11:40:08;3.07;;;2.80;;
1344;SDS011;15375;48.540;9.268;2022-07-17T11:42:34;3.03;;;2.83;;
1344;SDS011;15375;48.540;9.268;2022-07-17T11:44:59;2.87;;;2.67;;
1344;SDS011;15375;48.540;9.268;2022-07-17T11:47:25;2.57;;;2.40;;
1344;SDS011;15375;48.540;9.268;2022-07-17T11:50:03;3.40;;;2.30;;
1344;SDS011;15375;48.540;9.268;2022-07-17T11:52:54;2.40;;;2.30;;
1344;SDS011;15375;48.540;9.268;2022-07-17T11:55:35;2.93;;;2.60;;
1344;SDS011;15375;48.540;9.268;2022-07-17T11:58:04;2.97;;;2.77;;
1344;SDS011;15375;48.540;9.268;2022-07-17T12:00:30;3.93;;;2.23;;
1344;SDS011;15375;48.540;9.268;2022-07-17T12:03:00;3.17;;;2.97;;
1344;SDS011;15375;48.540;9.268;2022-07-17T12:05:30;3.20;;;2.90;;
1344;SDS011;15375;48.540;9.268;2022-07-17T12:07:58;3.40;;;3.10;;
1344;SDS011;15375;48.540;9.268;2022-07-17T12:10:25;3.17;;;2.97;;
1344;SDS011;15375;48.540;9.268;2022-07-17T12:12:56;2.97;;;2.77;;
1344;SDS011;15375;48.540;9.268;2022-07-17T12:15:43;3.43;;;3.13;;
1344;SDS011;15375;48.540;9.268;2022-07-17T12:18:24;2.60;;;2.50;;
1344;SDS011;15375;48.540;9.268;2022-07-17T12:20:51;2.70;;;2.50;;
1344;SDS011;15375;48.540;9.268;2022-07-17T12:26:02;4.33;;;3.90;;
1344;SDS011;15375;48.540;9.268;2022-07-17T12:28:46;4.27;;;2.80;;
1344;SDS011;15375;48.540;9.268;2022-07-17T12:31:12;3.63;;;2.80;;
1344;SDS011;15375;48.540;9.268;2022-07-17T12:33:39;3.20;;;2.67;;
1344;SDS011;15375;48.540;9.268;2022-07-17T12:36:05;2.73;;;2.53;;
1344;SDS011;15375;48.540;9.268;2022-07-17T12:38:31;3.07;;;2.87;;
1344;SDS011;15375;48.540;9.268;2022-07-17T12:40:59;3.47;;;3.27;;
1344;SDS011;15375;48.540;9.268;2022-07-17T12:43:25;3.13;;;2.90;;
1344;SDS011;15375;48.540;9.268;2022-07-17T12:45:50;2.57;;;2.37;;
1344;SDS011;15375;48.540;9.268;2022-07-17T12:48:16;4.77;;;3.07;;
1344;SDS011;15375;48.540;9.268;2022-07-17T12:50:41;3.03;;;2.73;;
1344;SDS011;15375;48.540;9.268;2022-07-17T12:53:07;2.50;;;2.40;;
1344;SDS011;15375;48.540;9.268;2022-07-17T12:55:33;3.23;;;2.87;;
1344;SDS011;15375;48.540;9.268;2022-07-17T12:57:59;3.10;;;2.90;;
1344;SDS011;15375;48.540;9.268;2022-07-17T13:00:24;2.87;;;2.67;;
1344;SDS011;15375;48.540;9.268;2022-07-17T13:02:49;3.47;;;3.17;;
1344;SDS011;15375;48.540;9.268;2022-07-17T13:05:15;3.17;;;2.90;;
1344;SDS011;15375;48.540;9.268;2022-07-17T13:07:41;3.10;;;2.90;;
1344;SDS011;15375;48.540;9.268;2022-07-17T13:10:06;3.00;;;2.80;;
1344;SDS011;15375;48.540;9.268;2022-07-17T13:12:32;4.73;;;2.70;;
1344;SDS011;15375;48.540;9.268;2022-07-17T13:14:57;2.93;;;2.73;;
1344;SDS011;15375;48.540;9.268;2022-07-17T13:17:23;3.60;;;3.40;;
1344;SDS011;15375;48.540;9.268;2022-07-17T13:19:48;2.43;;;2.33;;
1344;SDS011;15375;48.540;9.268;2022-07-17T13:22:14;2.30;;;2.20;;
1344;SDS011;15375;48.540;9.268;2022-07-17T13:24:39;3.37;;;2.87;;
1344;SDS011;15375;48.540;9.268;2022-07-17T13:27:05;3.37;;;3.00;;
1344;SDS011;15375;48.540;9.268;2022-07-17T13:29:30;3.30;;;3.00;;
1344;SDS011;15375;48.540;9.268;2022-07-17T13:31:56;2.80;;;2.60;;
1344;SDS011;15375;48.540;9.268;2022-07-17T13:34:22;3.13;;;2.83;;
1344;SDS011;15375;48.540;9.268;2022-07-17T13:36:48;2.57;;;2.30;;
1344;SDS011;15375;48.540;9.268;2022-07-17T13:39:15;2.90;;;2.70;;
1344;SDS011;15375;48.540;9.268;2022-07-17T13:41:41;2.83;;;2.63;;
1344;SDS011;15375;48.540;9.268;2022-07-17T13:44:07;2.83;;;2.63;;
1344;SDS011;15375;48.540;9.268;2022-07-17T13:46:32;2.87;;;2.67;;
1344;SDS011;15375;48.540;9.268;2022-07-17T13:48:58;2.90;;;2.70;;
1344;SDS011;15375;48.540;9.268;2022-07-17T13:51:25;3.20;;;2.90;;
1344;SDS011;15375;48.540;9.268;2022-07-17T13:53:51;2.90;;;2.70;;
1344;SDS011;15375;48.540;9.268;2022-07-17T13:56:17;3.20;;;3.00;;
1344;SDS011;15375;48.540;9.268;2022-07-17T13:58:43;3.30;;;3.10;;
1344;SDS011;15375;48.540;9.268;2022-07-17T14:01:12;3.30;;;3.10;;
1344;SDS011;15375;48.540;9.268;2022-07-17T14:03:38;3.20;;;2.90;;
1344;SDS011;15375;48.540;9.268;2022-07-17T14:06:03;3.20;;;2.97;;
1344;SDS011;15375;48.540;9.268;2022-07-17T14:08:29;3.07;;;2.77;;
1344;SDS011;15375;48.540;9.268;2022-07-17T14:10:55;3.00;;;2.70;;
1344;SDS011;15375;48.540;9.268;2022-07-17T14:13:22;3.10;;;2.80;;
1344;SDS011;15375;48.540;9.268;2022-07-17T14:15:49;3.50;;;3.23;;
1344;SDS011;15375;48.540;9.268;2022-07-17T14:18:14;3.50;;;3.20;;
1344;SDS011;15375;48.540;9.268;2022-07-17T14:20:39;2.77;;;2.57;;
1344;SDS011;15375;48.540;9.268;2022-07-17T14:23:05;2.40;;;2.20;;
1344;SDS011;15375;48.540;9.268;2022-07-17T14:25:30;3.00;;;2.80;;
1344;SDS011;15375;48.540;9.268;2022-07-17T14:27:56;3.33;;;3.03;;
1344;SDS011;15375;48.540;9.268;2022-07-17T14:30:23;2.40;;;2.30;;
1344;SDS011;15375;48.540;9.268;2022-07-17T14:32:48;2.90;;;2.70;;
1344;SDS011;15375;48.540;9.268;2022-07-17T14:35:14;3.50;;;3.07;;
1344;SDS011;15375;48.540;9.268;2022-07-17T14:37:39;3.00;;;2.80;;
1344;SDS011;15375;48.540;9.268;2022-07-17T14:40:05;3.93;;;3.33;;
1344;SDS011;15375;48.540;9.268;2022-07-17T14:42:31;3.00;;;2.80;;
1344;SDS011;15375;48.540;9.268;2022-07-17T14:44:58;2.87;;;2.67;;
1344;SDS011;15375;48.540;9.268;2022-07-17T14:47:25;3.07;;;2.87;;
1344;SDS011;15375;48.540;9.268;2022-07-17T14:49:51;2.90;;;2.70;;
1344;SDS011;15375;48.540;9.268;2022-07-17T14:52:16;2.73;;;2.53;;
1344;SDS011;15375;48.540;9.268;2022-07-17T14:54:42;3.37;;;2.50;;
1344;SDS011;15375;48.540;9.268;2022-07-17T14:57:07;3.03;;;2.83;;
1344;SDS011;15375;48.540;9.268;2022-07-17T14:59:33;3.13;;;2.83;;
1344;SDS011;15375;48.540;9.268;2022-07-17T15:01:59;3.20;;;3.00;;
1344;SDS011;15375;48.540;9.268;2022-07-17T15:04:24;2.80;;;2.60;;
1344;SDS011;15375;48.540;9.268;2022-07-17T15:06:49;3.50;;;3.30;;
1344;SDS011;15375;48.540;9.268;2022-07-17T15:09:15;3.20;;;3.00;;
1344;SDS011;15375;48.540;9.268;2022-07-17T15:11:40;4.00;;;3.60;;
1344;SDS011;15375;48.540;9.268;2022-07-17T15:14:06;3.47;;;3.17;;
1344;SDS011;15375;48.540;9.268;2022-07-17T15:16:31;2.93;;;2.73;;